Stillwater, OK (74075)

09:24 CDT le 23 octobre 2014 (GMT -0500)
Stillwater, East Side | Change Station
CLOSE
Current Station
Stations météorologiques personnelles
Location: Stillwater, OK
Altitude: 935 ft
Stations météo à proximité

Alt. 935 ft 36.12 °N, 97.04 °W | Updated 1 second ago

Mostly Cloudy
Nuageux
61.5 ° F
Paraît 61.5 ° F
N
5.5
Vent Variable Vent de SE
Gusts 11.2 mph

Aujourd'hui
Haut(e) -- | Bas -- ° F
--% Risque de précip.
Hier
Haut(e) -- | Bas -- ° F
Precip. -- pouce
7:42 AM 6:42 PM
Lune descendante, 0% visible
Pression 30.09 pouce
Visibilité 10.0 Miles terrestres
Nuages Nuageux 8000 ft
Point de rosée 58 ° F
Humidité 88%
Précipitations 0.04 pouce
Profondeur de la couche neigeuse Non disponible.
UV 0.8 sur 12
Pollen 5.10 sur 12
Qualité de l'air Non disponible.
Flu Activity No Activity
METAR KSWO 231353Z 19007KT 10SM BKN080 16/13 A3011 RMK AO2 SLP189 T01610133

More Conditions Fewer Conditions

Pression 30.09 pouce
Visibilité 10.0 Miles terrestres
Nuages Nuageux 8000 ft
Point de rosée 58 ° F
Humidité 88%
Précipitations 0.04 pouce
Profondeur de la couche neigeuse Non disponible.
UV 0.8 sur 12
Pollen 5.10 sur 12
Qualité de l'air Non disponible.
Flu Activity No Activity
METAR KSWO 231353Z 19007KT 10SM BKN080 16/13 A3011 RMK AO2 SLP189 T01610133

More Conditions Fewer Conditions

10-Day Weather Forecast

Almanac

Astronomie

Oct. 23, 2014 Lever Coucher
Temps réel 07:42 CDT 18:42 CDT
Crépuscule civil 07:16 CDT 19:08 CDT
Crépuscule nautique 06:46 CDT 19:38 CDT
Crépuscule astronomique 06:16 CDT 20:08 CDT
Lune 07:23 CDT 18:44 CDT
Durée de lumière visible 11h 52m
Longueur du jour
10h 59m
Tomorrow will be 2m 7s shorter.
Lune descendante, 0% of the Moon is Illuminated
Aujourd'hui
Lune descendante
Oct 23
Nouveau
Oct 30
Premier quartier
Nov 6
Pleine lune
Nov 14
Dernier quartier

Extrêmes aujourd'hui

State Highs State Lows

Community

WunderPhotos

Upload Photos

1,764,265 Photos téléchargées !

Nearby

Épaisseur de neige

Station Depth Altitude
Pas de nouvelles chutes de neige

Activité sismique

Ville Distance Mag. Time & Date
Medford, Oklahoma 50 Miles terrestres 3.0 02:06 CDT
2014-10-23
Pawnee, Oklahoma 19 Miles terrestres 2.7 01:06 CDT
2014-10-23
Luther, Oklahoma 37 Miles terrestres 2.5 22:36 CDT
2014-10-22
Crescent, Oklahoma 32 Miles terrestres 2.7 21:58 CDT
2014-10-22
Minimum magnitude displayed is 2.5.

Températures des eaux côtières

Lieu Température
Aucun rapport de station

Stations météo à proximité